Time;durP1;ratioP1;P1;durP2;ratioP2;P2;SDS_P1;SDS_P2;PMS_P1;PMS_P2;Temp;Humidity;BMP_temperature;BMP_pressure;BME280_temperature;BME280_humidity;BME280_pressure;Samples;Min_cycle;Max_cycle;Signal;HPM_P1;HPM_P2
2023/06/24 00:00:43;;;;;;;26.73;19.13;;;;;;;19.13;88.78;102374.16;4845762;29;20070;-61
2023/06/24 00:03:08;;;;;;;26.02;18.80;;;;;;;19.13;88.96;102375.03;4845815;29;20096;-61
2023/06/24 00:05:34;;;;;;;26.08;18.23;;;;;;;19.19;88.96;102372.50;4844901;29;21660;-61
2023/06/24 00:08:02;;;;;;;22.63;18.13;;;;;;;19.20;89.26;102373.38;4846181;29;20152;-61
2023/06/24 00:10:27;;;;;;;23.65;17.45;;;;;;;19.17;89.39;102368.94;4845680;29;20037;-61
2023/06/24 00:12:53;;;;;;;24.15;17.45;;;;;;;19.15;89.29;102365.41;4845988;29;20037;-61
2023/06/24 00:15:18;;;;;;;24.52;16.67;;;;;;;19.16;89.81;102369.81;4843440;29;20033;-61
2023/06/24 00:17:43;;;;;;;22.25;18.13;;;;;;;19.13;89.02;102368.88;4844068;29;20036;-61
2023/06/24 00:20:11;;;;;;;21.27;17.65;;;;;;;19.13;89.13;102371.53;4843656;29;20482;-61
2023/06/24 00:22:43;;;;;;;21.35;16.77;;;;;;;19.10;89.30;102375.91;4843379;29;20026;-61
2023/06/24 00:25:09;;;;;;;21.65;17.73;;;;;;;19.11;89.37;102368.88;4842176;29;20382;-61
2023/06/24 00:27:34;;;;;;;22.77;18.10;;;;;;;19.08;89.28;102371.47;4842236;29;20050;-61
2023/06/24 00:29:59;;;;;;;23.00;17.92;;;;;;;19.04;88.96;102377.56;4843144;29;20508;-61
2023/06/24 00:32:24;;;;;;;23.17;17.60;;;;;;;19.00;89.07;102378.41;4844227;29;20041;-61
2023/06/24 00:34:50;;;;;;;22.92;17.60;;;;;;;18.90;88.80;102380.94;4842654;29;20084;-61
2023/06/24 00:37:15;;;;;;;26.50;19.48;;;;;;;18.87;88.97;102391.44;4845396;29;20033;-61
2023/06/24 00:39:40;;;;;;;24.08;19.25;;;;;;;18.88;89.11;102393.22;4842931;29;20605;-61
2023/06/24 00:42:06;;;;;;;24.92;18.88;;;;;;;18.82;89.09;102387.81;4846717;29;20036;-61
2023/06/24 00:44:31;;;;;;;24.45;18.95;;;;;;;18.76;89.45;102388.59;4846396;29;20037;-61
2023/06/24 00:46:57;;;;;;;26.52;19.63;;;;;;;18.75;89.39;102386.81;4848749;29;20384;-61
2023/06/24 00:49:22;;;;;;;23.85;18.67;;;;;;;18.78;89.54;102388.63;4847544;29;20036;-61
2023/06/24 00:51:50;;;;;;;26.83;19.92;;;;;;;18.75;88.84;102394.75;4848745;29;20040;-61
2023/06/24 00:54:18;;;;;;;28.63;19.63;;;;;;;18.74;89.01;102397.38;4847962;29;20033;-61
2023/06/24 00:56:45;;;;;;;27.38;20.00;;;;;;;18.70;88.86;102398.22;4862434;29;20475;-61
2023/06/24 00:59:14;;;;;;;26.55;18.95;;;;;;;18.69;88.59;102402.59;4848020;29;20038;-61
2023/06/24 01:01:40;;;;;;;25.10;18.52;;;;;;;18.60;88.35;102395.41;4848400;29;20049;-61
2023/06/24 01:04:07;;;;;;;24.85;18.45;;;;;;;18.65;88.26;102395.47;4845759;29;20054;-61
2023/06/24 01:06:34;;;;;;;29.23;19.80;;;;;;;18.59;87.71;102384.84;4848028;29;20037;-61
2023/06/24 01:09:00;;;;;;;25.50;18.73;;;;;;;18.62;87.86;102378.72;4847144;29;20029;-61
2023/06/24 01:11:30;;;;;;;30.70;19.92;;;;;;;18.53;87.61;102380.34;4848081;29;20041;-61
2023/06/24 01:13:56;;;;;;;26.98;19.35;;;;;;;18.53;88.34;102380.34;4846442;29;20425;-61
2023/06/24 01:16:24;;;;;;;28.42;19.27;;;;;;;18.53;88.79;102384.75;4847173;29;20038;-61
2023/06/24 01:18:55;;;;;;;24.98;18.45;;;;;;;18.52;88.65;102378.56;4847059;29;20124;-61
2023/06/24 01:21:55;;;;;;;23.45;17.80;;;;;;;18.49;87.75;102372.38;4846487;29;20502;-61
2023/06/24 01:24:31;;;;;;;25.17;18.10;;;;;;;18.46;88.46;102369.69;4846653;29;20037;-61
2023/06/24 01:27:19;;;;;;;25.15;18.70;;;;;;;18.47;88.67;102377.63;4845862;29;20498;-61
2023/06/24 01:29:54;;;;;;;24.20;17.88;;;;;;;18.43;88.48;102365.25;4845487;29;20038;-61
2023/06/24 01:32:50;;;;;;;24.65;18.42;;;;;;;18.40;88.69;102365.19;4846692;29;20077;-60
2023/06/24 01:35:20;;;;;;;26.83;18.33;;;;;;;18.34;88.85;102362.47;4846281;29;20050;-60
2023/06/24 01:37:48;;;;;;;25.02;17.40;;;;;;;18.34;88.77;102362.47;4845913;29;20037;-61
2023/06/24 01:40:40;;;;;;;24.38;17.80;;;;;;;18.31;88.49;102363.31;4845333;29;20037;-61
2023/06/24 01:43:08;;;;;;;24.83;17.38;;;;;;;18.22;88.90;102363.16;4846385;29;20486;-61
2023/06/24 01:45:40;;;;;;;23.17;17.20;;;;;;;18.18;89.45;102359.56;4845592;29;20040;-61
2023/06/24 01:48:27;;;;;;;25.75;17.42;;;;;;;18.13;89.25;102363.00;4847254;29;20021;-61
2023/06/24 01:51:09;;;;;;;22.45;16.92;;;;;;;18.09;89.21;102362.06;4844483;29;20037;-61
2023/06/24 01:53:39;;;;;;;24.40;17.52;;;;;;;18.05;89.46;102360.25;4846798;29;20133;-61
2023/06/24 01:56:07;;;;;;;22.65;17.15;;;;;;;17.96;89.61;102360.97;4846178;29;20033;-61
2023/06/24 01:58:35;;;;;;;22.83;17.63;;;;;;;17.98;89.79;102356.59;4847228;29;20145;-61
2023/06/24 02:01:01;;;;;;;24.00;17.23;;;;;;;17.99;89.69;102357.50;4847535;29;21021;-61
2023/06/24 02:03:28;;;;;;;22.00;16.65;;;;;;;17.98;90.16;102359.22;4847255;29;20093;-61
2023/06/24 02:05:54;;;;;;;25.85;17.75;;;;;;;17.93;90.26;102355.66;4844957;29;20043;-60
2023/06/24 02:08:21;;;;;;;23.80;17.23;;;;;;;17.87;90.26;102356.38;4846046;29;20077;-61
2023/06/24 02:10:49;;;;;;;21.45;16.48;;;;;;;17.86;91.05;102354.59;4847808;29;20036;-60
2023/06/24 02:13:16;;;;;;;23.02;16.38;;;;;;;17.86;90.24;102354.59;4846933;29;20550;-61
2023/06/24 02:15:43;;;;;;;23.70;16.65;;;;;;;17.83;90.13;102348.38;4845612;29;20137;-61
2023/06/24 02:18:10;;;;;;;24.23;16.92;;;;;;;17.75;90.79;102342.97;4846287;29;20438;-61
2023/06/24 02:20:38;;;;;;;23.88;16.77;;;;;;;17.75;90.46;102350.00;4847317;29;20039;-61
2023/06/24 02:23:06;;;;;;;25.67;18.05;;;;;;;17.60;91.57;102350.59;4846433;29;20116;-61
2023/06/24 02:25:32;;;;;;;27.63;18.15;;;;;;;17.38;93.15;102355.47;4843888;29;20178;-61
2023/06/24 02:27:58;;;;;;;25.80;18.05;;;;;;;17.16;94.51;102352.41;4846361;29;20136;-60
2023/06/24 02:30:24;;;;;;;23.02;17.35;;;;;;;17.08;95.71;102351.34;4844951;29;20044;-61
2023/06/24 02:32:50;;;;;;;24.75;17.98;;;;;;;17.03;96.15;102351.25;4846306;29;20093;-61
2023/06/24 02:35:16;;;;;;;25.73;17.85;;;;;;;16.98;96.42;102350.25;4844240;29;20082;-61
2023/06/24 02:37:41;;;;;;;25.13;18.25;;;;;;;16.99;96.11;102351.19;4846546;29;20041;-60
2023/06/24 02:40:08;;;;;;;26.85;17.45;;;;;;;16.98;96.46;102357.28;4844513;29;20037;-61
2023/06/24 02:42:34;;;;;;;24.88;17.40;;;;;;;17.00;95.82;102352.94;4844105;29;20653;-61
2023/06/24 02:45:00;;;;;;;24.08;17.67;;;;;;;17.02;94.80;102352.09;4844640;29;20544;-61
2023/06/24 02:47:26;;;;;;;25.00;17.55;;;;;;;17.08;94.35;102348.72;4845188;29;20044;-60
2023/06/24 02:49:53;;;;;;;28.58;17.35;;;;;;;17.12;93.77;102353.19;4845722;29;20065;-60
2023/06/24 02:52:19;;;;;;;24.58;17.17;;;;;;;17.14;93.26;102353.22;4844392;29;20065;-60
2023/06/24 02:54:45;;;;;;;27.38;16.98;;;;;;;17.02;93.64;102351.22;4843443;29;20116;-60
2023/06/24 02:57:10;;;;;;;25.60;17.52;;;;;;;16.95;93.93;102352.84;4845337;29;20037;-60
2023/06/24 02:59:36;;;;;;;26.83;17.45;;;;;;;16.91;94.25;102355.38;4844244;29;20497;-61
2023/06/24 03:02:03;;;;;;;26.48;17.65;;;;;;;16.92;93.94;102363.31;4845685;29;20053;-61
2023/06/24 03:04:30;;;;;;;26.48;18.60;;;;;;;16.79;94.34;102366.50;4843405;29;20026;-61
2023/06/24 03:06:56;;;;;;;24.90;17.10;;;;;;;16.69;95.35;102373.28;4845353;29;20351;-60
2023/06/24 03:09:21;;;;;;;22.83;16.50;;;;;;;16.64;95.63;102381.09;4845699;29;20145;-60
2023/06/24 03:11:47;;;;;;;23.67;16.00;;;;;;;16.62;95.71;102377.50;4845694;29;20042;-60
2023/06/24 03:14:13;;;;;;;23.58;16.92;;;;;;;16.56;96.27;102377.38;4845156;29;20045;-61
2023/06/24 03:16:38;;;;;;;26.50;17.27;;;;;;;16.49;96.62;102372.81;4843266;29;20060;-60
2023/06/24 03:19:04;;;;;;;27.73;17.98;;;;;;;16.39;97.17;102369.06;4845491;29;20025;-60
2023/06/24 03:21:30;;;;;;;28.95;18.58;;;;;;;16.38;97.56;102371.66;4844840;29;20033;-60
2023/06/24 03:23:56;;;;;;;25.58;17.30;;;;;;;16.38;97.43;102372.59;4845935;29;20032;-60
2023/06/24 03:26:22;;;;;;;26.60;17.38;;;;;;;16.42;96.87;102368.25;4844482;29;20094;-61
2023/06/24 03:28:47;;;;;;;26.35;17.23;;;;;;;16.46;96.21;102371.00;4845448;29;20029;-60
2023/06/24 03:31:15;;;;;;;26.10;16.98;;;;;;;16.49;95.93;102368.44;4844852;29;20032;-60
2023/06/24 03:33:44;;;;;;;25.15;16.40;;;;;;;16.44;96.76;102361.31;4843810;29;20525;-60
2023/06/24 03:36:10;;;;;;;25.10;17.20;;;;;;;16.37;96.02;102365.53;4842479;29;20124;-60
2023/06/24 03:38:35;;;;;;;28.00;18.23;;;;;;;16.28;96.15;102367.91;4845143;29;20405;-60
2023/06/24 03:41:01;;;;;;;27.90;17.23;;;;;;;16.25;96.22;102365.22;4843142;29;20045;-60
2023/06/24 03:43:26;;;;;;;26.70;18.10;;;;;;;16.24;95.52;102364.34;4844928;29;20034;-60
2023/06/24 03:45:51;;;;;;;27.38;17.27;;;;;;;16.24;95.01;102363.47;4843772;29;20112;-60
2023/06/24 03:48:17;;;;;;;26.23;16.92;;;;;;;16.29;96.01;102368.00;4843407;29;20039;-60
2023/06/24 03:50:42;;;;;;;25.15;17.23;;;;;;;16.33;95.93;102366.31;4846070;29;20406;-60
2023/06/24 03:53:07;;;;;;;26.67;16.80;;;;;;;16.37;96.08;102373.44;4846145;29;20029;-60
2023/06/24 03:55:32;;;;;;;27.02;17.48;;;;;;;16.36;95.57;102371.63;4845218;29;20042;-60
2023/06/24 03:57:58;;;;;;;27.40;16.70;;;;;;;16.34;95.83;102382.13;4845864;29;20045;-61
2023/06/24 04:00:23;;;;;;;26.00;16.65;;;;;;;16.34;95.50;102375.97;4845186;29;20108;-61
2023/06/24 04:02:48;;;;;;;24.50;16.27;;;;;;;16.33;96.16;102379.47;4844640;29;20121;-61
2023/06/24 04:05:14;;;;;;;27.33;16.85;;;;;;;16.33;96.58;102375.06;4845180;29;20385;-60
2023/06/24 04:07:39;;;;;;;24.67;16.15;;;;;;;16.35;96.09;102380.38;4844419;29;20045;-61
2023/06/24 04:10:08;;;;;;;24.23;16.25;;;;;;;16.39;95.81;102383.97;4845220;29;20025;-61
2023/06/24 04:12:35;;;;;;;24.55;16.88;;;;;;;16.41;96.25;102383.16;4845093;29;20030;-61
2023/06/24 04:15:02;;;;;;;25.50;16.98;;;;;;;16.39;95.96;102374.34;4845731;29;20036;-61
2023/06/24 04:17:28;;;;;;;26.08;17.30;;;;;;;16.38;95.42;102374.31;4849468;29;20048;-61
2023/06/24 04:19:53;;;;;;;27.73;18.35;;;;;;;16.34;95.78;102378.63;4846941;29;20394;-61
2023/06/24 04:22:18;;;;;;;26.85;18.80;;;;;;;16.36;96.62;102379.53;4848016;29;20053;-61
2023/06/24 04:24:43;;;;;;;27.40;18.30;;;;;;;16.37;96.47;102386.56;4845458;29;20071;-61
2023/06/24 04:27:09;;;;;;;28.17;18.85;;;;;;;16.36;96.17;102384.78;4846694;29;20498;-60
2023/06/24 04:29:34;;;;;;;27.20;19.17;;;;;;;16.39;96.20;102382.22;4849280;29;20397;-60
2023/06/24 04:32:00;;;;;;;27.92;19.33;;;;;;;16.36;96.90;102382.16;4848629;29;20124;-61
2023/06/24 04:34:25;;;;;;;28.30;19.15;;;;;;;16.37;97.17;102383.94;4847208;29;20053;-61
2023/06/24 04:36:50;;;;;;;26.95;18.75;;;;;;;16.39;97.18;102379.59;4847313;29;20387;-61
2023/06/24 04:39:16;;;;;;;28.77;19.27;;;;;;;16.38;97.43;102375.22;4848343;29;20038;-61
2023/06/24 04:41:41;;;;;;;28.63;18.02;;;;;;;16.39;97.17;102376.97;4848603;29;20025;-61
2023/06/24 04:44:07;;;;;;;31.40;19.23;;;;;;;16.42;96.76;102374.41;4848493;29;20073;-61
2023/06/24 04:46:33;;;;;;;28.25;18.73;;;;;;;16.44;96.37;102377.09;4845594;29;20199;-61
2023/06/24 04:48:58;;;;;;;29.95;18.90;;;;;;;16.47;96.32;102377.19;4846085;29;20106;-61
2023/06/24 04:51:23;;;;;;;29.83;19.38;;;;;;;16.43;95.42;102378.81;4847494;29;20487;-61
2023/06/24 04:53:49;;;;;;;29.48;18.48;;;;;;;16.41;95.63;102387.53;4846781;29;20029;-61
2023/06/24 04:56:14;;;;;;;28.02;17.92;;;;;;;16.39;94.85;102390.13;4845152;29;20379;-61
2023/06/24 04:58:39;;;;;;;31.67;19.45;;;;;;;16.42;95.66;102384.94;4847622;29;20033;-61
2023/06/24 05:01:05;;;;;;;31.38;18.55;;;;;;;16.43;95.58;102381.47;4846066;29;20068;-61
2023/06/24 05:03:30;;;;;;;28.58;18.48;;;;;;;16.46;96.36;102373.63;4848618;29;20053;-61
2023/06/24 05:05:55;;;;;;;31.23;18.63;;;;;;;16.43;95.84;102386.72;4845426;29;20025;-61
2023/06/24 05:08:21;;;;;;;27.95;17.85;;;;;;;16.45;96.11;102385.03;4846545;29;20341;-61
2023/06/24 05:10:46;;;;;;;30.63;18.88;;;;;;;16.44;95.59;102377.09;4846140;29;20044;-61
2023/06/24 05:13:11;;;;;;;28.67;18.52;;;;;;;16.43;95.86;102380.56;4844575;29;20034;-61
2023/06/24 05:15:36;;;;;;;32.50;18.85;;;;;;;16.44;94.09;102383.25;4844872;29;20033;-61
2023/06/24 05:18:02;;;;;;;31.70;19.73;;;;;;;16.50;93.56;102385.13;4846779;29;20029;-61
2023/06/24 05:20:27;;;;;;;32.55;20.05;;;;;;;16.55;95.14;102383.47;4846715;29;20486;-61
2023/06/24 05:22:53;;;;;;;33.88;20.85;;;;;;;16.61;94.33;102374.84;4846791;29;20490;-61
2023/06/24 05:25:18;;;;;;;36.15;21.63;;;;;;;16.68;93.80;102377.69;4844696;29;20157;-61
2023/06/24 05:27:44;;;;;;;35.47;21.27;;;;;;;16.75;91.86;102380.44;4845807;29;20033;-61
2023/06/24 05:30:10;;;;;;;36.28;21.58;;;;;;;16.79;91.62;102382.28;4846586;29;20041;-61
2023/06/24 05:32:35;;;;;;;35.88;22.60;;;;;;;16.85;92.61;102385.06;4846347;29;20042;-61
2023/06/24 05:35:00;;;;;;;35.55;21.23;;;;;;;16.90;91.58;102393.09;4845790;29;21149;-60
2023/06/24 05:37:26;;;;;;;33.35;21.33;;;;;;;16.95;91.27;102391.47;4846125;29;20068;-61
2023/06/24 05:39:51;;;;;;;34.35;22.20;;;;;;;16.99;89.86;102393.31;4845253;29;20045;-60
2023/06/24 05:42:17;;;;;;;33.97;21.63;;;;;;;17.03;89.35;102389.84;4846745;29;20036;-60
2023/06/24 05:44:42;;;;;;;33.17;21.27;;;;;;;17.04;88.94;102382.00;4846675;29;20037;-60
2023/06/24 05:47:07;;;;;;;33.65;21.88;;;;;;;17.08;89.37;102396.13;4845991;29;20447;-60
2023/06/24 05:49:33;;;;;;;32.28;21.85;;;;;;;17.14;88.85;102385.72;4846638;29;20037;-61
2023/06/24 05:51:58;;;;;;;32.15;21.20;;;;;;;17.24;90.13;102388.56;4844972;29;20113;-60
2023/06/24 05:54:24;;;;;;;34.20;21.17;;;;;;;17.31;88.91;102398.38;4848112;29;20557;-61
2023/06/24 05:56:49;;;;;;;31.98;20.50;;;;;;;17.35;87.13;102397.56;4846897;29;20663;-61
2023/06/24 05:59:15;;;;;;;32.65;20.13;;;;;;;17.42;86.50;102396.81;4847534;29;20105;-61
2023/06/24 06:01:40;;;;;;;31.33;19.98;;;;;;;17.51;85.40;102389.13;4847990;29;20425;-61
2023/06/24 06:04:05;;;;;;;32.65;20.98;;;;;;;17.54;85.23;102386.53;4846346;29;20394;-61
2023/06/24 06:06:31;;;;;;;31.45;19.52;;;;;;;17.61;84.96;102390.19;4846958;29;20060;-61
2023/06/24 06:08:57;;;;;;;32.08;19.25;;;;;;;17.66;85.47;102393.78;4847138;29;20118;-61
2023/06/24 06:11:22;;;;;;;29.90;18.40;;;;;;;17.68;84.68;102394.72;4846297;29;20101;-61
2023/06/24 06:13:48;;;;;;;30.88;18.85;;;;;;;17.72;85.13;102391.25;4843837;29;20037;-61
2023/06/24 06:16:13;;;;;;;31.20;18.85;;;;;;;17.80;85.63;102394.06;4846294;29;20642;-61
2023/06/24 06:18:39;;;;;;;26.33;17.50;;;;;;;17.88;83.45;102394.19;4846078;29;20034;-61
2023/06/24 06:21:04;;;;;;;23.38;14.82;;;;;;;17.98;82.99;102395.28;4846125;29;20021;-61
2023/06/24 06:23:29;;;;;;;29.13;17.38;;;;;;;18.05;82.84;102402.44;4843933;29;20818;-61
2023/06/24 06:25:55;;;;;;;27.15;16.70;;;;;;;18.17;81.79;102401.75;4845962;29;20101;-61
2023/06/24 06:28:20;;;;;;;25.55;16.38;;;;;;;18.26;80.68;102401.91;4845732;29;20033;-61
2023/06/24 06:30:46;;;;;;;25.52;16.25;;;;;;;18.34;80.66;102405.56;4844624;29;20125;-61
2023/06/24 06:33:11;;;;;;;25.08;15.65;;;;;;;18.40;81.30;102404.78;4843903;29;20045;-61
2023/06/24 06:35:36;;;;;;;27.67;16.05;;;;;;;18.47;80.57;102401.38;4845554;29;20570;-61
2023/06/24 06:38:02;;;;;;;27.38;16.10;;;;;;;18.54;79.85;102408.53;4843507;29;20046;-61
2023/06/24 06:40:28;;;;;;;25.70;16.65;;;;;;;18.60;79.00;102415.66;4844339;29;20045;-61
2023/06/24 06:42:53;;;;;;;26.77;16.25;;;;;;;18.65;81.90;102415.72;4843926;29;20033;-61
2023/06/24 06:45:19;;;;;;;23.85;15.55;;;;;;;18.68;78.37;102413.13;4842352;29;20052;-61
2023/06/24 06:47:44;;;;;;;25.25;15.20;;;;;;;18.73;78.49;102422.91;4845314;29;20705;-61
2023/06/24 06:50:10;;;;;;;25.35;15.27;;;;;;;18.79;78.64;102416.81;4845196;29;20409;-61
2023/06/24 06:52:35;;;;;;;22.42;13.95;;;;;;;18.87;76.82;102417.88;4843303;29;20041;-61
2023/06/24 06:55:00;;;;;;;21.85;13.73;;;;;;;19.00;77.39;102421.56;4845119;29;20038;-61
2023/06/24 06:57:26;;;;;;;21.67;13.45;;;;;;;19.10;75.20;102426.13;4843464;29;20036;-61
2023/06/24 06:59:51;;;;;;;22.08;13.70;;;;;;;19.14;75.51;102427.03;4846107;29;20037;-61
2023/06/24 07:02:18;;;;;;;21.08;12.90;;;;;;;19.23;76.63;102427.16;4843598;29;20030;-61
2023/06/24 07:04:43;;;;;;;22.17;12.98;;;;;;;19.32;74.16;102422.84;4844450;29;20037;-61
2023/06/24 07:07:09;;;;;;;21.52;13.27;;;;;;;19.41;74.98;102426.50;5030252;23;20057;-61
2023/06/24 07:09:34;;;;;;;18.33;12.23;;;;;;;19.58;75.94;102432.00;4847518;29;20033;-61
2023/06/24 07:12:00;;;;;;;20.55;11.98;;;;;;;19.64;73.70;102433.81;4846389;29;20034;-61
2023/06/24 07:14:25;;;;;;;21.25;11.65;;;;;;;19.71;71.77;102434.75;4848659;29;20375;-61
2023/06/24 07:16:51;;;;;;;19.45;11.80;;;;;;;19.80;72.99;102434.91;4846426;29;20407;-60
2023/06/24 07:19:16;;;;;;;17.80;11.27;;;;;;;19.89;72.16;102428.84;4844765;29;20076;-61
2023/06/24 07:21:41;;;;;;;18.70;11.13;;;;;;;20.00;72.82;102436.88;4844102;29;20097;-61
2023/06/24 07:24:06;;;;;;;17.70;11.75;;;;;;;20.08;71.43;102429.91;4944848;23;20069;-60
2023/06/24 07:26:32;;;;;;;19.30;11.07;;;;;;;20.23;73.00;102423.84;5089051;23;20031;-61
2023/06/24 07:29:00;;;;;;;18.05;11.18;;;;;;;20.32;71.32;102426.59;5090811;23;20050;-62
2023/06/24 07:33:50;;;;;;;15.95;9.98;;;;;;;20.49;73.54;102432.00;5110112;23;20391;-60
2023/06/24 07:36:16;;;;;;;18.05;10.02;;;;;;;20.56;71.32;102428.53;5204303;23;20050;-61
2023/06/24 07:38:41;;;;;;;19.90;10.63;;;;;;;20.62;71.06;102427.69;4914077;23;20061;-60
2023/06/24 07:41:06;;;;;;;17.15;10.88;;;;;;;20.64;70.31;102429.47;4865116;29;20497;-61
2023/06/24 07:43:32;;;;;;;15.05;9.75;;;;;;;20.78;70.76;102426.06;4862247;29;20477;-60
2023/06/24 07:48:31;;;;;;;11.35;6.97;;;;;;;20.97;65.45;102424.41;4832292;29;20653;-61
2023/06/24 07:50:56;;;;;;;11.25;6.30;;;;;;;21.07;65.24;102425.34;4837215;29;20033;-60
2023/06/24 07:53:21;;;;;;;10.60;5.88;;;;;;;21.19;62.94;102425.41;4836976;29;20040;-61
2023/06/24 07:55:46;;;;;;;13.32;5.28;;;;;;;21.34;61.76;102428.13;4933954;23;20105;-61
2023/06/24 07:58:12;;;;;;;8.30;5.03;;;;;;;21.50;59.19;102430.84;5123541;23;20514;-62
2023/06/24 08:00:37;;;;;;;8.98;5.13;;;;;;;21.59;60.47;102425.59;5214594;23;20141;-61
2023/06/24 08:05:38;;;;;;;9.05;4.95;;;;;;;21.91;64.75;102427.44;5048181;23;20546;-61
2023/06/24 08:08:04;;;;;;;9.38;5.05;;;;;;;21.93;60.54;102420.38;4945791;23;20032;-61
2023/06/24 08:10:29;;;;;;;8.43;5.05;;;;;;;22.04;60.65;102420.38;4848630;29;20704;-61
2023/06/24 08:12:55;;;;;;;9.95;5.20;;;;;;;22.12;59.34;102423.94;5094427;23;21878;-61
2023/06/24 08:17:53;;;;;;;9.68;5.50;;;;;;;22.29;59.48;102418.63;4956492;23;20072;-63
2023/06/24 08:20:22;;;;;;;10.65;5.13;;;;;;;22.34;56.56;102416.00;4991111;23;20105;-96
2023/06/24 08:22:48;;;;;;;8.52;4.60;;;;;;;22.47;56.30;102419.53;4876972;29;20073;-96
2023/06/24 08:25:16;;;;;;;7.13;4.90;;;;;;;22.69;58.25;102418.59;4877846;29;20029;-96
2023/06/24 08:27:46;;;;;;;7.80;4.50;;;;;;;22.81;57.13;102416.81;4893771;29;20044;-96
2023/06/24 08:30:17;;;;;;;8.75;4.78;;;;;;;22.99;58.75;102416.78;4853615;29;20056;-96
2023/06/24 08:35:44;;;;;;;;;;;;;;;23.21;56.90;102401.66;4928848;23;20084;-96
2023/06/24 08:38:34;;;;;;;6.60;3.85;;;;;;;23.26;54.54;102406.97;4881314;29;19924;-96
2023/06/24 08:41:04;;;;;;;6.72;4.15;;;;;;;23.39;54.51;102410.44;4876808;29;20096;-96
2023/06/24 08:43:32;;;;;;;6.82;3.97;;;;;;;23.37;51.67;102407.78;4876858;29;20033;-96
2023/06/24 08:46:11;;;;;;;9.98;6.45;;;;;;;23.44;53.98;102396.22;4878193;29;20070;-96
2023/06/24 08:49:02;;;;;;;6.45;3.63;;;;;;;23.51;53.65;102391.75;4877706;29;20574;-96
2023/06/24 08:51:31;;;;;;;8.52;3.92;;;;;;;23.65;55.15;102397.00;4873428;29;20029;-96
2023/06/24 08:54:01;;;;;;;7.93;3.47;;;;;;;23.81;52.10;102388.91;4875037;29;20033;-96
2023/06/24 08:56:27;;;;;;;5.60;3.10;;;;;;;24.01;51.75;102400.31;4883455;23;20062;-64
2023/06/24 08:58:52;;;;;;;6.55;3.70;;;;;;;24.15;50.96;102399.34;4860989;29;20032;-64
2023/06/24 09:01:18;;;;;;;5.68;3.25;;;;;;;24.22;50.25;102398.41;4856349;29;20033;-63
2023/06/24 09:03:43;;;;;;;8.00;3.30;;;;;;;24.35;48.74;102399.16;4861504;29;20025;-64
2023/06/24 09:06:09;;;;;;;5.15;3.03;;;;;;;24.47;46.98;102397.25;4862953;29;20574;-64
2023/06/24 09:08:35;;;;;;;5.82;2.95;;;;;;;24.65;52.49;102390.91;4859256;29;20041;-63
2023/06/24 09:11:01;;;;;;;5.55;3.50;;;;;;;24.61;47.10;102398.94;4859358;29;20398;-63
2023/06/24 09:13:35;;;;;;;5.72;3.78;;;;;;;24.63;48.53;102392.69;4862578;29;20029;-62
2023/06/24 09:16:12;;;;;;;7.00;3.55;;;;;;;24.62;50.84;102398.03;4865033;29;20029;-63
2023/06/24 09:18:38;;;;;;;5.75;3.33;;;;;;;24.68;46.93;102397.97;4861852;29;20052;-63
2023/06/24 09:21:03;;;;;;;5.53;3.55;;;;;;;24.62;49.04;102398.03;4862906;29;20481;-64
2023/06/24 09:23:28;;;;;;;172.35;125.00;;;;;;;24.75;49.39;102390.78;4862012;29;20481;-63
2023/06/24 09:26:00;;;;;;;6.75;3.67;;;;;;;24.94;47.65;102384.34;4861351;29;20028;-64
2023/06/24 09:28:28;;;;;;;6.10;3.67;;;;;;;25.12;48.49;102383.22;4858587;29;20033;-65
2023/06/24 09:31:09;;;;;;;5.45;3.40;;;;;;;25.25;48.33;102373.28;4861898;29;20069;-65
2023/06/24 09:33:35;;;;;;;12.23;3.45;;;;;;;25.24;43.62;102374.19;4863476;29;20033;-66
2023/06/24 09:36:04;;;;;;;6.78;3.42;;;;;;;25.14;45.24;102373.44;4858400;29;20033;-66
2023/06/24 09:38:35;;;;;;;5.75;3.35;;;;;;;25.38;45.69;102368.69;4844463;29;20022;-65
2023/06/24 09:41:04;;;;;;;5.15;3.25;;;;;;;25.33;43.87;102366.09;4839614;29;20042;-63
2023/06/24 09:43:33;;;;;;;5.00;2.95;;;;;;;25.63;46.65;102363.00;4844687;29;20018;-65
2023/06/24 09:46:00;;;;;;;35.33;29.92;;;;;;;25.74;43.51;102360.13;4837442;29;20090;-65
2023/06/24 09:48:26;;;;;;;64.47;48.10;;;;;;;25.76;42.34;102361.88;4841899;29;20121;-66
2023/06/24 09:50:51;;;;;;;7.15;3.58;;;;;;;25.81;42.15;102352.03;4841671;29;20112;-66
2023/06/24 09:53:18;;;;;;;7.63;3.20;;;;;;;25.93;43.59;102364.28;4842407;29;20029;-64
2023/06/24 09:55:46;;;;;;;6.18;3.42;;;;;;;26.07;42.65;102357.88;4844874;29;20157;-66
2023/06/24 09:58:13;;;;;;;4.95;3.00;;;;;;;26.17;43.27;102362.13;4845542;29;20053;-65
2023/06/24 10:00:38;;;;;;;5.57;3.10;;;;;;;26.30;42.12;102365.47;4842969;29;20109;-68
2023/06/24 10:03:04;;;;;;;6.05;2.97;;;;;;;26.41;41.83;102358.13;4839282;29;20093;-65
2023/06/24 10:05:29;;;;;;;5.68;3.55;;;;;;;26.48;40.49;102354.44;4842195;29;20118;-67
2023/06/24 10:07:54;;;;;;;6.18;3.70;;;;;;;26.49;43.97;102361.56;4843496;29;20038;-65
2023/06/24 10:10:20;;;;;;;7.27;4.10;;;;;;;26.59;44.94;102362.25;4841213;29;20435;-69
2023/06/24 10:12:45;;;;;;;6.25;3.53;;;;;;;26.50;43.04;102363.31;4842553;29;20299;-65
2023/06/24 10:15:11;;;;;;;6.20;3.45;;;;;;;26.61;45.88;102356.91;4844827;29;20029;-64
2023/06/24 10:17:37;;;;;;;5.57;3.47;;;;;;;26.80;43.22;102349.41;4841462;29;20073;-67
2023/06/24 10:20:06;;;;;;;7.07;3.65;;;;;;;26.71;42.31;102361.19;4844018;29;20537;-66
2023/06/24 10:22:32;;;;;;;6.90;4.03;;;;;;;26.71;42.15;102356.69;4842794;29;20387;-68
2023/06/24 10:25:05;;;;;;;6.97;3.65;;;;;;;26.67;43.84;102359.44;4843211;29;20045;-66
2023/06/24 10:27:38;;;;;;;6.05;3.65;;;;;;;26.73;44.69;102349.50;4844214;29;20034;-65
2023/06/24 10:30:04;;;;;;;7.72;4.07;;;;;;;26.84;42.25;102345.78;4844020;29;20471;-66
2023/06/24 10:32:41;;;;;;;6.50;3.85;;;;;;;26.88;44.84;102351.00;4844419;29;20038;-67
2023/06/24 10:35:06;;;;;;;6.07;3.88;;;;;;;26.93;43.35;102342.88;4838554;29;20044;-65
2023/06/24 10:40:05;;;;;;;7.28;4.60;;;;;;;27.28;43.47;102333.19;4925075;23;20105;-65
2023/06/24 10:42:43;;;;;;;5.95;4.10;;;;;;;27.40;43.60;102342.75;5030040;23;20308;-67
2023/06/24 10:47:49;;;;;;;7.18;3.78;;;;;;;27.17;42.76;102333.44;4942839;23;20534;-65
2023/06/24 10:50:19;;;;;;;6.77;3.87;;;;;;;27.38;42.62;102339.25;5003631;23;20077;-65
2023/06/24 10:52:50;;;;;;;7.68;4.40;;;;;;;27.41;44.63;102331.16;4847598;29;20045;-63
2023/06/24 10:55:18;;;;;;;7.30;4.40;;;;;;;27.48;41.90;102332.78;4850942;29;20025;-67
2023/06/24 10:57:44;;;;;;;;;;;;;;;27.66;44.80;102326.06;4853131;29;20052;-65
2023/06/24 11:00:11;;;;;;;5.93;4.20;;;;;;;28.00;43.74;102324.41;4852801;29;20380;-66
2023/06/24 11:02:36;;;;;;;6.50;4.15;;;;;;;28.04;41.80;102337.66;4851863;29;20599;-65
2023/06/24 11:05:04;;;;;;;9.25;4.22;;;;;;;28.02;41.64;102333.25;4854919;29;20057;-66
2023/06/24 11:07:34;;;;;;;6.22;4.22;;;;;;;28.04;42.54;102335.00;4854225;29;20040;-65
2023/06/24 11:10:06;;;;;;;6.70;4.47;;;;;;;28.05;44.74;102323.31;4852990;29;20037;-66
2023/06/24 11:12:34;;;;;;;6.55;4.55;;;;;;;28.13;44.54;102319.56;4848640;29;20029;-67
2023/06/24 11:15:02;;;;;;;7.28;4.18;;;;;;;28.19;40.85;102316.75;4852843;29;20026;-66
2023/06/24 11:17:27;;;;;;;6.57;4.20;;;;;;;28.23;42.39;102315.75;4853123;29;20489;-66
2023/06/24 11:19:54;;;;;;;7.93;4.70;;;;;;;28.18;41.05;102317.66;4853053;29;20045;-64
2023/06/24 11:22:19;;;;;;;5.18;3.72;;;;;;;28.27;41.46;102307.56;4851562;29;20029;-65
2023/06/24 11:24:45;;;;;;;6.55;4.47;;;;;;;28.33;41.22;102310.97;4854690;29;20401;-64
2023/06/24 11:27:10;;;;;;;6.75;4.22;;;;;;;28.33;39.89;102300.25;4851234;29;20089;-67
2023/06/24 11:29:35;;;;;;;5.72;4.10;;;;;;;28.34;38.93;102297.53;4853499;29;20052;-65
2023/06/24 11:32:02;;;;;;;6.05;4.25;;;;;;;28.32;37.63;102309.25;4852060;29;20942;-64